Portada
METAR-TAF:

METAR-TAF

Aeropuertos :

Aeropuerto de San Sebastián

San Sebastián, España

latitud: 43-21N, longitud: 001-48W, altitud: 5 m

Observación

El informe se hizo hace 38 minutos, a las 19:00 UTC
Viento 1 kt con dirección variable
Temperatura 10°C
Humedad 82%
Presión 1010 hPa
Visibilidad 10 km o más
sin nubes por debajo de 1500 m y sin presencia de cumulonimbus.

METAR: LESO 211900Z VRB01KT CAVOK 10/07 Q1010

Hora: 20:38 (19:38 UTC)

Pronóstico

El informe se hizo hace 2 horas y 38 minutos, a las 17:00 UTC
Pronóstico válido del 21 a las 18 UTC al 22 a las 18 UTC
Viento 7 kt del sur
Visibilidad 10 km o más
Nubes dispersas a una altura de 6000 ft
Probabilidad 40% :
Temporalmente
del 22 a las 00 UTC al 22 a las 18 UTC
Viento 15 kt del sur-suroeste con ráfagas de 25 kt

TAF: LESO 211700Z 2118/2218 19007KT 9999 SCT060 TX17/2214Z TN08/2207Z PROB40 TEMPO 2200/2218 20015G25KT

Observaciones y pronósticos meteorológicos de más de 4000 aeropuertos (mensajes METAR y TAF).

Los puntos amarillos y rojos representan las estaciones disponibles.

Ponga el ratón en el punto deseado para ver el nombre de la estación.

Haga clic para ver las observaciones y los pronósticos meteorológicos.

Para cambiar el mapa : haga clic en los botones verdes con una cruz de color negro para hacer un zoom, en el botón verde con un guión para alejar o en las flechas verdes para mapas adyacentes.


METAR-TAF: